createdAt,value
2023-02-18T00:00:08.489Z,0.10
2023-02-18T00:01:09.348Z,0.10
2023-02-18T00:02:10.243Z,0.20
2023-02-18T00:03:11.092Z,0.20
2023-02-18T00:04:11.917Z,0.10
2023-02-18T00:05:12.753Z,361.60
2023-02-18T00:06:13.621Z,320.20
2023-02-18T00:07:14.468Z,333.40
2023-02-18T00:08:15.333Z,313.20
2023-02-18T00:09:16.224Z,308.30
2023-02-18T00:10:17.079Z,331.20
2023-02-18T00:11:17.970Z,330.00
2023-02-18T00:12:18.817Z,312.20
2023-02-18T00:13:19.688Z,305.30
2023-02-18T00:14:20.471Z,327.60
2023-02-18T00:15:21.323Z,313.00
2023-02-18T00:16:22.196Z,309.50
2023-02-18T00:17:23.052Z,298.50
2023-02-18T00:18:23.896Z,294.90
2023-02-18T00:19:24.751Z,301.90
2023-02-18T00:20:25.602Z,295.90
2023-02-18T00:21:26.467Z,302.10
2023-02-18T00:22:27.318Z,306.70
2023-02-18T00:23:28.196Z,331.20
2023-02-18T00:24:29.016Z,349.50
2023-02-18T00:25:29.883Z,330.30
2023-02-18T00:26:31.226Z,308.70
2023-02-18T00:27:31.588Z,296.20
2023-02-18T00:28:32.463Z,285.90
2023-02-18T00:29:33.240Z,268.00
2023-02-18T00:30:34.125Z,0.20
2023-02-18T00:31:35.320Z,0.20
2023-02-18T00:32:35.690Z,1.40
2023-02-18T00:33:36.537Z,0.10
2023-02-18T00:34:37.378Z,0.10
2023-02-18T00:35:38.243Z,0.10
2023-02-18T00:36:39.123Z,0.20
2023-02-18T00:37:39.956Z,0.20
2023-02-18T00:38:40.832Z,0.20
2023-02-18T00:39:41.667Z,0.20
2023-02-18T00:40:42.516Z,0.10
2023-02-18T00:41:43.720Z,0.10
2023-02-18T00:42:44.074Z,0.20
2023-02-18T00:43:44.950Z,0.10
2023-02-18T00:44:45.725Z,0.10
2023-02-18T00:45:46.585Z,188.90
2023-02-18T00:46:47.802Z,243.70
2023-02-18T00:47:48.094Z,254.20
2023-02-18T00:48:48.969Z,273.70
2023-02-18T00:49:49.801Z,254.50
2023-02-18T00:50:50.705Z,256.60
2023-02-18T00:51:51.720Z,263.50
2023-02-18T00:52:52.075Z,259.10
2023-02-18T00:53:52.941Z,262.80
2023-02-18T00:54:53.775Z,258.90
2023-02-18T00:55:54.666Z,263.20
2023-02-18T00:56:55.723Z,268.90
2023-02-18T00:57:56.075Z,282.90
2023-02-18T00:58:56.944Z,241.90
2023-02-18T00:59:57.719Z,235.90
2023-02-18T01:00:58.576Z,250.80
2023-02-18T01:01:59.724Z,236.30
2023-02-18T01:03:00.088Z,237.60
2023-02-18T01:04:00.933Z,273.80
2023-02-18T01:05:01.814Z,270.50
2023-02-18T01:06:02.638Z,247.10
2023-02-18T01:07:03.503Z,232.30
2023-02-18T01:08:04.347Z,245.50
2023-02-18T01:09:05.230Z,230.10
2023-02-18T01:10:06.063Z,238.50
2023-02-18T01:11:06.916Z,236.70
2023-02-18T01:12:08.313Z,250.20
2023-02-18T01:13:08.662Z,236.30
2023-02-18T01:14:09.537Z,252.00
2023-02-18T01:15:10.339Z,228.30
2023-02-18T01:16:11.604Z,236.90
2023-02-18T01:17:12.104Z,243.90
2023-02-18T01:18:12.945Z,211.10
2023-02-18T01:19:13.797Z,239.60
2023-02-18T01:20:14.658Z,233.30
2023-02-18T01:21:15.511Z,243.50
2023-02-18T01:22:16.370Z,238.70
2023-02-18T01:23:17.226Z,228.30
2023-02-18T01:24:18.110Z,240.60
2023-02-18T01:25:18.931Z,218.20
2023-02-18T01:26:19.779Z,217.60
2023-02-18T01:27:20.665Z,233.20
2023-02-18T01:28:21.497Z,226.60
2023-02-18T01:29:22.366Z,234.50
2023-02-18T01:30:23.566Z,231.10
2023-02-18T01:31:24.005Z,204.70
2023-02-18T01:32:25.223Z,216.10
2023-02-18T01:33:25.577Z,226.60
2023-02-18T01:34:26.433Z,214.70
2023-02-18T01:35:27.285Z,199.20
2023-02-18T01:36:28.132Z,196.30
2023-02-18T01:37:28.992Z,202.20
2023-02-18T01:38:29.854Z,185.60
2023-02-18T01:39:30.746Z,212.60
2023-02-18T01:40:31.637Z,182.70
2023-02-18T01:41:32.486Z,222.50
2023-02-18T01:42:33.717Z,208.50
2023-02-18T01:43:34.067Z,198.50
2023-02-18T01:44:34.965Z,220.30
2023-02-18T01:45:35.742Z,197.20
2023-02-18T01:46:36.668Z,203.90
2023-02-18T01:47:37.488Z,203.80
2023-02-18T01:48:39.676Z,210.10
2023-02-18T01:49:39.088Z,211.20
2023-02-18T01:50:39.940Z,217.50
2023-02-18T01:51:40.794Z,200.80
2023-02-18T01:52:41.716Z,204.90
2023-02-18T01:53:42.572Z,201.10
2023-02-18T01:54:43.444Z,207.70
2023-02-18T01:55:44.276Z,201.00
2023-02-18T01:56:45.126Z,203.00
2023-02-18T01:57:45.987Z,197.20
2023-02-18T01:58:46.838Z,218.70
2023-02-18T01:59:47.707Z,213.30
2023-02-18T02:00:48.550Z,204.50
2023-02-18T02:01:49.427Z,208.30
2023-02-18T02:02:50.714Z,208.10
2023-02-18T02:03:51.065Z,205.30
2023-02-18T02:04:51.919Z,188.00
2023-02-18T02:05:52.773Z,195.80
2023-02-18T02:06:53.620Z,201.00
2023-02-18T02:07:54.478Z,181.50
2023-02-18T02:08:55.331Z,192.30
2023-02-18T02:09:56.206Z,182.60
2023-02-18T02:10:57.044Z,190.20
2023-02-18T02:11:57.891Z,167.60
2023-02-18T02:12:58.774Z,184.60
2023-02-18T02:13:59.625Z,187.10
2023-02-18T02:15:00.514Z,172.00
2023-02-18T02:16:01.382Z,84.00
2023-02-18T02:17:02.172Z,1.20
2023-02-18T02:18:03.033Z,155.40
2023-02-18T02:19:03.884Z,154.40
2023-02-18T02:20:04.765Z,161.10
2023-02-18T02:21:05.594Z,158.70
2023-02-18T02:22:06.455Z,153.20
2023-02-18T02:23:07.714Z,164.40
2023-02-18T02:24:08.065Z,158.20
2023-02-18T02:25:08.950Z,155.50
2023-02-18T02:26:10.024Z,155.20
2023-02-18T02:27:10.378Z,150.40
2023-02-18T02:28:11.716Z,157.80
2023-02-18T02:29:12.071Z,153.50
2023-02-18T02:30:13.062Z,146.30
2023-02-18T02:31:13.978Z,153.80
2023-02-18T02:32:14.829Z,141.50
2023-02-18T02:33:15.710Z,147.60
2023-02-18T02:34:16.567Z,149.50
2023-02-18T02:35:17.431Z,125.40
2023-02-18T02:36:18.281Z,122.20
2023-02-18T02:37:19.134Z,125.50
2023-02-18T02:38:19.999Z,129.60
2023-02-18T02:39:20.849Z,115.80
2023-02-18T02:40:21.732Z,131.20
2023-02-18T02:41:22.556Z,124.10
2023-02-18T02:42:23.407Z,133.90
2023-02-18T02:43:24.710Z,122.10
2023-02-18T02:44:25.064Z,102.80
2023-02-18T02:45:25.984Z,108.40
2023-02-18T02:46:26.769Z,105.00
2023-02-18T02:47:27.627Z,124.30
2023-02-18T02:48:28.509Z,117.70
2023-02-18T02:49:29.348Z,111.00
2023-02-18T02:50:30.203Z,99.20
2023-02-18T02:51:31.066Z,93.50
2023-02-18T02:52:31.923Z,108.70
2023-02-18T02:53:32.786Z,89.70
2023-02-18T02:54:33.676Z,99.50
2023-02-18T02:55:34.508Z,94.40
2023-02-18T02:56:35.340Z,91.70
2023-02-18T02:57:36.189Z,91.90
2023-02-18T02:58:37.049Z,89.20
2023-02-18T02:59:37.908Z,75.70
2023-02-18T03:00:38.775Z,80.30
2023-02-18T03:01:39.601Z,80.60
2023-02-18T03:02:40.497Z,85.50
2023-02-18T03:03:41.324Z,80.00
2023-02-18T03:04:42.178Z,83.40
2023-02-18T03:05:43.039Z,84.10
2023-02-18T03:06:43.884Z,67.90
2023-02-18T03:07:44.741Z,75.70
2023-02-18T03:08:45.601Z,81.00
2023-02-18T03:09:46.451Z,69.80
2023-02-18T03:10:47.321Z,79.40
2023-02-18T03:11:48.160Z,77.20
2023-02-18T03:12:49.007Z,67.00
2023-02-18T03:13:49.894Z,69.10
2023-02-18T03:14:50.745Z,62.00
2023-02-18T03:15:51.624Z,69.90
2023-02-18T03:16:52.490Z,61.70
2023-02-18T03:17:53.299Z,55.90
2023-02-18T03:18:54.169Z,51.20
2023-02-18T03:19:55.019Z,62.60
2023-02-18T03:20:55.875Z,55.50
2023-02-18T03:21:56.723Z,56.00
2023-02-18T03:22:57.577Z,55.20
2023-02-18T03:23:58.440Z,46.50
2023-02-18T03:24:59.301Z,48.60
2023-02-18T03:26:00.172Z,53.70
2023-02-18T03:27:01.011Z,48.00
2023-02-18T03:28:01.860Z,59.00
2023-02-18T03:29:02.729Z,49.60
2023-02-18T03:30:03.741Z,44.60
2023-02-18T03:31:04.260Z,55.60
2023-02-18T03:32:05.185Z,58.40
2023-02-18T03:33:05.981Z,57.40
2023-02-18T03:34:07.214Z,55.00
2023-02-18T03:35:07.565Z,62.40
2023-02-18T03:36:08.823Z,62.40
2023-02-18T03:37:09.320Z,70.40
2023-02-18T03:38:10.170Z,60.90
2023-02-18T03:39:11.046Z,62.90
2023-02-18T03:40:11.908Z,77.20
2023-02-18T03:41:12.772Z,59.90
2023-02-18T03:42:13.623Z,63.40
2023-02-18T03:43:14.469Z,58.50
2023-02-18T03:44:15.715Z,61.90
2023-02-18T03:45:16.089Z,72.60
2023-02-18T03:46:16.976Z,72.90
2023-02-18T03:47:17.787Z,69.40
2023-02-18T03:48:18.639Z,60.50
2023-02-18T03:49:19.510Z,56.90
2023-02-18T03:50:20.377Z,63.10
2023-02-18T03:51:21.225Z,62.60
2023-02-18T03:52:22.076Z,51.20
2023-02-18T03:53:22.935Z,57.50
2023-02-18T03:54:24.217Z,57.70
2023-02-18T03:55:24.566Z,54.20
2023-02-18T03:56:25.444Z,63.00
2023-02-18T03:57:26.287Z,62.90
2023-02-18T03:58:27.141Z,64.90
2023-02-18T03:59:28.004Z,56.40
2023-02-18T04:00:28.867Z,58.10
2023-02-18T04:01:29.807Z,62.50
2023-02-18T04:02:30.584Z,63.60
2023-02-18T04:03:31.451Z,66.60
2023-02-18T04:04:32.843Z,66.10
2023-02-18T04:05:33.188Z,47.80
2023-02-18T04:06:34.033Z,55.30
2023-02-18T04:07:34.894Z,59.40
2023-02-18T04:08:35.751Z,61.40
2023-02-18T04:09:36.707Z,55.50
2023-02-18T04:10:37.556Z,72.50
2023-02-18T04:11:38.441Z,66.40
2023-02-18T04:12:39.263Z,65.50
2023-02-18T04:13:40.116Z,56.10
2023-02-18T04:14:41.223Z,58.60
2023-02-18T04:15:41.582Z,58.80
2023-02-18T04:16:42.588Z,64.00
2023-02-18T04:17:42.921Z,59.80
2023-02-18T04:18:43.781Z,61.00
2023-02-18T04:19:44.646Z,65.90
2023-02-18T04:20:45.500Z,67.70
2023-02-18T04:21:46.359Z,68.50
2023-02-18T04:22:47.222Z,60.80
2023-02-18T04:23:48.075Z,58.70
2023-02-18T04:24:49.209Z,64.20
2023-02-18T04:25:49.574Z,50.50
2023-02-18T04:26:50.544Z,55.60
2023-02-18T04:27:51.320Z,60.30
2023-02-18T04:28:52.170Z,67.60
2023-02-18T04:29:53.202Z,68.30
2023-02-18T04:30:53.644Z,65.30
2023-02-18T04:31:54.590Z,67.50
2023-02-18T04:32:55.390Z,79.90
2023-02-18T04:33:56.242Z,66.30
2023-02-18T04:34:57.116Z,83.50
2023-02-18T04:35:57.953Z,78.50
2023-02-18T04:36:58.818Z,72.50
2023-02-18T04:37:59.676Z,66.60
2023-02-18T04:39:00.537Z,82.40
2023-02-18T04:40:01.705Z,72.00
2023-02-18T04:41:02.056Z,68.40
2023-02-18T04:42:02.945Z,68.20
2023-02-18T04:43:03.807Z,70.20
2023-02-18T04:44:04.663Z,69.40
2023-02-18T04:45:05.706Z,69.50
2023-02-18T04:46:06.466Z,72.60
2023-02-18T04:47:06.926Z,56.30
2023-02-18T04:48:07.742Z,60.20
2023-02-18T04:49:08.598Z,55.40
2023-02-18T04:50:09.715Z,53.00
2023-02-18T04:51:10.068Z,51.40
2023-02-18T04:52:10.922Z,39.20
2023-02-18T04:53:11.787Z,48.40
2023-02-18T04:54:12.636Z,42.10
2023-02-18T04:55:13.700Z,40.00
2023-02-18T04:56:14.051Z,41.50
2023-02-18T04:57:14.924Z,36.90
2023-02-18T04:58:15.762Z,36.60
2023-02-18T04:59:16.616Z,45.90
2023-02-18T05:00:17.478Z,35.40
2023-02-18T05:01:18.365Z,34.90
2023-02-18T05:02:19.222Z,38.40
2023-02-18T05:03:20.038Z,36.70
2023-02-18T05:04:20.903Z,44.50
2023-02-18T05:05:21.752Z,48.50
2023-02-18T05:06:22.604Z,36.90
2023-02-18T05:07:23.454Z,37.50
2023-02-18T05:08:24.309Z,44.30
2023-02-18T05:09:25.161Z,38.50
2023-02-18T05:10:26.028Z,38.40
2023-02-18T05:11:26.884Z,34.10
2023-02-18T05:12:27.747Z,39.10
2023-02-18T05:13:28.590Z,39.70
2023-02-18T05:14:29.433Z,28.10
2023-02-18T05:15:30.357Z,34.90
2023-02-18T05:16:31.159Z,37.40
2023-02-18T05:17:32.037Z,36.80
2023-02-18T05:18:32.817Z,34.00
2023-02-18T05:19:33.658Z,34.20
2023-02-18T05:20:34.521Z,29.60
2023-02-18T05:21:35.375Z,23.70
2023-02-18T05:22:36.222Z,23.20
2023-02-18T05:23:37.075Z,28.30
2023-02-18T05:24:37.924Z,30.40
2023-02-18T05:25:38.788Z,32.90
2023-02-18T05:26:39.638Z,28.90
2023-02-18T05:27:40.509Z,33.80
2023-02-18T05:28:41.347Z,30.30
2023-02-18T05:29:42.199Z,36.20
2023-02-18T05:30:43.114Z,31.40
2023-02-18T05:31:44.067Z,26.20
2023-02-18T05:32:44.470Z,29.70
2023-02-18T05:33:45.275Z,30.10
2023-02-18T05:34:46.147Z,26.60
2023-02-18T05:35:47.005Z,20.70
2023-02-18T05:36:47.859Z,27.40
2023-02-18T05:37:48.713Z,23.20
2023-02-18T05:38:49.562Z,24.80
2023-02-18T05:39:50.425Z,25.00
2023-02-18T05:40:51.279Z,30.70
2023-02-18T05:41:52.138Z,30.00
2023-02-18T05:42:53.005Z,22.30
2023-02-18T05:43:53.847Z,30.50
2023-02-18T05:44:54.703Z,22.50
2023-02-18T05:45:55.703Z,25.40
2023-02-18T05:46:56.072Z,27.00
2023-02-18T05:47:56.942Z,20.80
2023-02-18T05:48:57.721Z,22.30
2023-02-18T05:49:58.584Z,22.90
2023-02-18T05:50:59.715Z,20.70
2023-02-18T05:52:00.490Z,19.30
2023-02-18T05:53:00.860Z,17.70
2023-02-18T05:54:01.697Z,20.00
2023-02-18T05:55:02.550Z,24.30
2023-02-18T05:56:03.412Z,23.10
2023-02-18T05:57:04.312Z,22.20
2023-02-18T05:58:05.141Z,23.90
2023-02-18T05:59:05.992Z,21.10
2023-02-18T06:00:06.861Z,20.00
2023-02-18T06:01:07.708Z,18.50
2023-02-18T06:02:08.565Z,18.10
2023-02-18T06:03:09.433Z,20.00
2023-02-18T06:04:10.217Z,23.50
2023-02-18T06:05:11.069Z,21.10
2023-02-18T06:06:12.474Z,27.40
2023-02-18T06:07:12.846Z,27.20
2023-02-18T06:08:13.708Z,25.60
2023-02-18T06:09:14.560Z,25.60
2023-02-18T06:10:15.422Z,22.80
2023-02-18T06:11:16.284Z,23.00
2023-02-18T06:12:17.134Z,20.20
2023-02-18T06:13:18.005Z,0.20
2023-02-18T06:14:18.847Z,22.80
2023-02-18T06:15:19.712Z,24.90
2023-02-18T06:16:20.633Z,18.20
2023-02-18T06:17:21.439Z,21.40
2023-02-18T06:18:22.399Z,19.10
2023-02-18T06:19:23.191Z,14.20
2023-02-18T06:20:24.038Z,12.80
2023-02-18T06:21:25.216Z,22.30
2023-02-18T06:22:25.563Z,15.50
2023-02-18T06:23:26.417Z,19.00
2023-02-18T06:24:27.271Z,21.40
2023-02-18T06:25:28.119Z,13.90
2023-02-18T06:26:28.984Z,18.90
2023-02-18T06:27:29.834Z,20.80
2023-02-18T06:28:30.718Z,21.00
2023-02-18T06:29:31.551Z,21.90
2023-02-18T06:30:32.466Z,18.20
2023-02-18T06:31:33.886Z,21.50
2023-02-18T06:32:34.221Z,21.60
2023-02-18T06:33:35.091Z,26.60
2023-02-18T06:34:35.945Z,22.10
2023-02-18T06:35:36.798Z,26.60
2023-02-18T06:36:37.697Z,24.30
2023-02-18T06:37:38.562Z,23.70
2023-02-18T06:38:39.434Z,24.10
2023-02-18T06:39:40.280Z,18.60
2023-02-18T06:40:41.121Z,28.80
2023-02-18T06:41:42.199Z,27.60
2023-02-18T06:42:42.550Z,27.10
2023-02-18T06:43:43.436Z,20.60
2023-02-18T06:44:44.255Z,27.20
2023-02-18T06:45:45.112Z,22.10
2023-02-18T06:46:46.242Z,21.60
2023-02-18T06:47:46.551Z,23.60
2023-02-18T06:48:47.500Z,27.10
2023-02-18T06:49:48.288Z,26.90
2023-02-18T06:50:49.146Z,24.90
2023-02-18T06:51:50.006Z,26.50
2023-02-18T06:52:50.859Z,24.00
2023-02-18T06:53:51.723Z,31.00
2023-02-18T06:54:52.584Z,20.20
2023-02-18T06:55:53.435Z,30.60
2023-02-18T06:56:54.290Z,27.60
2023-02-18T06:57:55.145Z,23.40
2023-02-18T06:58:56.018Z,30.60
2023-02-18T06:59:56.891Z,26.70
2023-02-18T07:00:57.802Z,22.10
2023-02-18T07:01:58.628Z,30.60
2023-02-18T07:02:59.453Z,26.20
2023-02-18T07:04:00.380Z,20.30
2023-02-18T07:05:01.216Z,30.90
2023-02-18T07:06:02.069Z,28.70
2023-02-18T07:07:03.194Z,32.10
2023-02-18T07:08:03.547Z,25.30
2023-02-18T07:09:04.422Z,28.70
2023-02-18T07:10:05.272Z,20.60
2023-02-18T07:11:06.143Z,21.50
2023-02-18T07:12:07.003Z,27.90
2023-02-18T07:13:07.860Z,21.60
2023-02-18T07:14:08.730Z,25.00
2023-02-18T07:15:09.559Z,26.10
2023-02-18T07:16:10.863Z,36.50
2023-02-18T07:17:11.283Z,31.20
2023-02-18T07:18:12.165Z,26.80
2023-02-18T07:19:14.849Z,29.40
2023-02-18T07:20:13.737Z,37.60
2023-02-18T07:21:14.587Z,35.40
2023-02-18T07:22:15.452Z,33.80
2023-02-18T07:23:16.304Z,28.70
2023-02-18T07:24:17.159Z,30.40
2023-02-18T07:25:18.011Z,28.00
2023-02-18T07:26:18.862Z,24.80
2023-02-18T07:27:19.723Z,30.90
2023-02-18T07:28:20.681Z,37.00
2023-02-18T07:29:21.548Z,33.20
2023-02-18T07:30:22.476Z,36.20
2023-02-18T07:31:23.360Z,33.90
2023-02-18T07:32:24.196Z,29.60
2023-02-18T07:33:25.044Z,35.50
2023-02-18T07:34:25.913Z,37.90
2023-02-18T07:35:26.728Z,27.70
2023-02-18T07:36:27.565Z,40.00
2023-02-18T07:37:28.692Z,30.60
2023-02-18T07:38:29.065Z,34.50
2023-02-18T07:39:29.910Z,21.80
2023-02-18T07:40:30.765Z,28.80
2023-02-18T07:41:31.622Z,32.40
2023-02-18T07:42:32.694Z,28.10
2023-02-18T07:43:33.055Z,27.70
2023-02-18T07:44:33.934Z,22.30
2023-02-18T07:45:34.821Z,25.10
2023-02-18T07:46:35.644Z,26.10
2023-02-18T07:47:36.690Z,27.80
2023-02-18T07:48:37.042Z,25.60
2023-02-18T07:49:37.913Z,24.30
2023-02-18T07:50:38.686Z,19.10
2023-02-18T07:51:39.544Z,18.80
2023-02-18T07:52:40.404Z,20.30
2023-02-18T07:53:41.269Z,19.70
2023-02-18T07:54:42.145Z,22.30
2023-02-18T07:55:43.015Z,24.20
2023-02-18T07:56:43.852Z,22.00
2023-02-18T07:57:44.715Z,21.60
2023-02-18T07:58:45.568Z,20.30
2023-02-18T07:59:46.473Z,19.90
2023-02-18T08:00:47.305Z,20.80
2023-02-18T08:01:48.195Z,19.90
2023-02-18T08:02:49.191Z,20.80
2023-02-18T08:03:49.582Z,20.30
2023-02-18T08:04:50.423Z,18.10
2023-02-18T08:05:51.204Z,16.40
2023-02-18T08:06:52.054Z,18.30
2023-02-18T08:07:52.919Z,17.80
2023-02-18T08:08:53.773Z,15.30
2023-02-18T08:09:54.625Z,15.60
2023-02-18T08:10:55.490Z,15.10
2023-02-18T08:11:56.346Z,12.60
2023-02-18T08:12:57.691Z,12.00
2023-02-18T08:13:58.046Z,12.40
2023-02-18T08:14:58.915Z,14.10
2023-02-18T08:15:59.753Z,13.90
2023-02-18T08:17:00.605Z,13.60
2023-02-18T08:18:02.047Z,11.20
2023-02-18T08:19:02.384Z,13.90
2023-02-18T08:20:03.237Z,12.30
2023-02-18T08:21:04.015Z,12.20
2023-02-18T08:22:04.886Z,11.70
2023-02-18T08:23:06.231Z,12.80
2023-02-18T08:24:06.559Z,10.40
2023-02-18T08:25:07.412Z,17.20
2023-02-18T08:26:08.529Z,13.00
2023-02-18T08:27:09.024Z,0.10
2023-02-18T08:28:09.888Z,0.20
2023-02-18T08:29:10.738Z,0.20
2023-02-18T08:30:11.681Z,0.30
2023-02-18T08:31:12.641Z,0.20
2023-02-18T08:32:13.001Z,0.30
2023-02-18T08:33:13.850Z,0.20
2023-02-18T08:34:14.702Z,17.20
2023-02-18T08:35:15.579Z,0.20
2023-02-18T08:36:16.363Z,0.20
2023-02-18T08:37:17.213Z,0.20
2023-02-18T08:38:18.072Z,0.10
2023-02-18T08:39:18.930Z,0.10
2023-02-18T08:40:19.795Z,0.20
2023-02-18T08:41:20.657Z,0.20
2023-02-18T08:42:21.526Z,0.10
2023-02-18T08:43:22.695Z,0.20
2023-02-18T08:44:23.046Z,0.20
2023-02-18T08:45:23.919Z,1.10
2023-02-18T08:46:32.913Z,0.10
2023-02-18T08:48:18.460Z,0.10
2023-02-18T08:48:27.691Z,0.10
2023-02-18T08:49:27.044Z,0.20
2023-02-18T08:50:27.940Z,0.40
2023-02-18T08:51:28.726Z,0.20
2023-02-18T08:52:29.582Z,0.10
2023-02-18T08:53:30.447Z,0.10
2023-02-18T08:54:31.302Z,0.10
2023-02-18T08:55:32.155Z,0.10
2023-02-18T08:56:33.016Z,0.20
2023-02-18T08:57:33.865Z,0.20
2023-02-18T08:58:34.725Z,0.20
2023-02-18T08:59:35.583Z,1.50
2023-02-18T09:00:36.461Z,0.20
2023-02-18T09:01:37.350Z,0.10
2023-02-18T09:02:38.140Z,0.20
2023-02-18T09:03:39.012Z,0.10
2023-02-18T09:04:39.859Z,0.20
2023-02-18T09:05:40.731Z,0.10
2023-02-18T09:06:41.517Z,0.10
2023-02-18T09:07:42.371Z,64.40
2023-02-18T09:08:43.694Z,59.80
2023-02-18T09:09:44.047Z,0.30
2023-02-18T09:10:46.350Z,0.10
2023-02-18T09:11:45.680Z,0.10
2023-02-18T09:12:46.547Z,13.40
2023-02-18T09:13:47.391Z,0.10
2023-02-18T09:14:48.246Z,47.30
2023-02-18T09:15:49.162Z,0.10
2023-02-18T09:16:49.962Z,0.20
2023-02-18T09:17:50.819Z,0.10
2023-02-18T09:18:52.268Z,0.10
2023-02-18T09:19:52.605Z,0.20
2023-02-18T09:20:53.484Z,0.20
2023-02-18T09:21:54.269Z,0.20
2023-02-18T09:22:55.120Z,0.10
2023-02-18T09:23:55.981Z,0.10
2023-02-18T09:24:56.834Z,0.10
2023-02-18T09:25:57.689Z,6.20
2023-02-18T09:26:58.537Z,0.10
2023-02-18T09:27:59.395Z,0.10
2023-02-18T09:29:00.249Z,0.20
2023-02-18T09:30:01.155Z,0.10
2023-02-18T09:31:02.108Z,0.10
2023-02-18T09:32:02.932Z,0.20
2023-02-18T09:33:03.747Z,0.10
2023-02-18T09:34:04.613Z,0.10
2023-02-18T09:35:05.474Z,0.10
2023-02-18T09:36:06.336Z,39.20
2023-02-18T09:37:07.112Z,0.20
2023-02-18T09:38:07.968Z,0.10
2023-02-18T09:39:08.829Z,0.10
2023-02-18T09:40:09.676Z,26.70
2023-02-18T09:41:10.917Z,0.20
2023-02-18T09:42:11.254Z,3.50
2023-02-18T09:43:12.103Z,0.10
2023-02-18T09:44:12.965Z,0.10
2023-02-18T09:45:13.826Z,0.10
2023-02-18T09:46:14.695Z,0.10
2023-02-18T09:47:15.521Z,0.20
2023-02-18T09:48:16.378Z,13.00
2023-02-18T09:49:17.237Z,0.20
2023-02-18T09:50:18.092Z,0.10
2023-02-18T09:51:18.961Z,20.10
2023-02-18T09:52:19.752Z,13.70
2023-02-18T09:53:20.606Z,0.10
2023-02-18T09:54:21.474Z,0.10
2023-02-18T09:55:22.321Z,0.10
2023-02-18T09:56:23.176Z,0.10
2023-02-18T09:57:24.022Z,0.20
2023-02-18T09:58:24.880Z,0.10
2023-02-18T09:59:25.742Z,0.10
2023-02-18T10:00:26.607Z,0.20
2023-02-18T10:01:27.547Z,0.10
2023-02-18T10:02:28.336Z,0.10
2023-02-18T10:03:29.195Z,0.20
2023-02-18T10:04:30.054Z,0.10
2023-02-18T10:05:30.927Z,0.10
2023-02-18T10:06:31.817Z,38.10
2023-02-18T10:07:32.598Z,0.40
2023-02-18T10:08:33.444Z,0.10
2023-02-18T10:09:34.309Z,0.10
2023-02-18T10:10:35.175Z,0.10
2023-02-18T10:11:36.012Z,0.10
2023-02-18T10:12:36.876Z,0.10
2023-02-18T10:13:37.728Z,0.10
2023-02-18T10:14:38.606Z,1.00
2023-02-18T10:15:39.528Z,0.20
2023-02-18T10:16:40.393Z,0.20
2023-02-18T10:17:41.227Z,0.10
2023-02-18T10:18:42.075Z,0.10
2023-02-18T10:19:43.476Z,0.10
2023-02-18T10:20:43.821Z,0.20
2023-02-18T10:21:44.701Z,0.10
2023-02-18T10:22:45.478Z,0.20
2023-02-18T10:23:46.333Z,0.10
2023-02-18T10:24:47.212Z,0.10
2023-02-18T10:25:48.058Z,0.10
2023-02-18T10:26:48.922Z,0.20
2023-02-18T10:27:49.799Z,0.10
2023-02-18T10:28:50.647Z,0.10
2023-02-18T10:29:51.517Z,0.10
2023-02-18T10:30:52.399Z,0.10
2023-02-18T10:31:53.424Z,0.20
2023-02-18T10:32:53.792Z,0.10
2023-02-18T10:33:54.643Z,0.20
2023-02-18T10:34:55.502Z,0.10
2023-02-18T10:35:56.358Z,0.10
2023-02-18T10:36:57.240Z,0.10
2023-02-18T10:37:58.065Z,0.10
2023-02-18T10:38:58.912Z,0.20
2023-02-18T10:40:00.179Z,0.10
2023-02-18T10:41:00.532Z,0.10
2023-02-18T10:42:01.399Z,8.40
2023-02-18T10:43:02.244Z,0.10
2023-02-18T10:44:03.088Z,0.10
2023-02-18T10:45:04.180Z,0.10
2023-02-18T10:46:04.536Z,0.20
2023-02-18T10:47:05.406Z,0.10
2023-02-18T10:48:06.238Z,0.10
2023-02-18T10:49:07.094Z,0.20
2023-02-18T10:50:08.179Z,0.60
2023-02-18T10:51:08.843Z,0.20
2023-02-18T10:52:09.324Z,0.20
2023-02-18T10:53:10.100Z,0.10
2023-02-18T10:54:10.953Z,0.10
2023-02-18T10:55:12.184Z,0.10
2023-02-18T10:56:12.548Z,0.20
2023-02-18T10:57:13.384Z,0.20
2023-02-18T10:58:14.251Z,0.10
2023-02-18T10:59:15.108Z,0.40
2023-02-18T11:00:15.984Z,0.10
2023-02-18T11:01:16.868Z,0.10
2023-02-18T11:02:17.697Z,0.10
2023-02-18T11:03:18.533Z,0.20
2023-02-18T11:04:19.410Z,0.20
2023-02-18T11:05:20.679Z,0.20
2023-02-18T11:06:21.034Z,0.20
2023-02-18T11:07:21.899Z,0.20
2023-02-18T11:08:22.681Z,0.20
2023-02-18T11:09:23.536Z,0.20
2023-02-18T11:10:24.677Z,0.20
2023-02-18T11:11:25.025Z,0.20
2023-02-18T11:12:25.888Z,0.20
2023-02-18T11:13:26.734Z,15.70
2023-02-18T11:14:27.588Z,0.20
2023-02-18T11:15:28.458Z,0.20
2023-02-18T11:16:29.349Z,0.20
2023-02-18T11:17:30.209Z,0.20
2023-02-18T11:18:31.050Z,0.20
2023-02-18T11:19:31.908Z,0.20
2023-02-18T11:20:33.187Z,0.20
2023-02-18T11:21:33.538Z,0.20
2023-02-18T11:22:34.424Z,0.20
2023-02-18T11:23:35.217Z,0.20
2023-02-18T11:24:36.072Z,0.20
2023-02-18T11:25:37.174Z,0.20
2023-02-18T11:26:37.544Z,0.20
2023-02-18T11:27:38.392Z,0.20
2023-02-18T11:28:39.248Z,0.20
2023-02-18T11:29:40.098Z,13.20
2023-02-18T11:30:41.004Z,0.20
2023-02-18T11:31:41.900Z,40.30
2023-02-18T11:32:42.758Z,34.70
2023-02-18T11:33:43.593Z,32.50
2023-02-18T11:34:44.447Z,41.90
2023-02-18T11:35:45.672Z,42.30
2023-02-18T11:36:46.037Z,41.70
2023-02-18T11:37:46.895Z,42.60
2023-02-18T11:38:47.714Z,35.10
2023-02-18T11:39:48.577Z,39.40
2023-02-18T11:40:49.672Z,38.70
2023-02-18T11:41:50.027Z,37.60
2023-02-18T11:42:50.882Z,30.80
2023-02-18T11:43:51.734Z,37.00
2023-02-18T11:44:52.596Z,20.70
2023-02-18T11:45:53.672Z,34.10
2023-02-18T11:46:54.051Z,32.60
2023-02-18T11:47:54.928Z,31.30
2023-02-18T11:48:55.769Z,29.60
2023-02-18T11:49:56.615Z,28.30
2023-02-18T11:50:57.479Z,28.30
2023-02-18T11:51:58.330Z,23.00
2023-02-18T11:52:59.199Z,20.70
2023-02-18T11:54:00.293Z,19.80
2023-02-18T11:55:00.630Z,24.60
2023-02-18T11:56:01.491Z,29.20
2023-02-18T11:57:02.384Z,31.80
2023-02-18T11:58:03.199Z,26.80
2023-02-18T11:59:04.076Z,22.30
2023-02-18T12:00:04.910Z,24.70
2023-02-18T12:01:06.397Z,16.40
2023-02-18T12:02:06.786Z,20.60
2023-02-18T12:03:07.626Z,22.50
2023-02-18T12:04:08.465Z,17.90
2023-02-18T12:05:09.405Z,23.10
2023-02-18T12:06:10.205Z,18.70
2023-02-18T12:07:11.053Z,17.40
2023-02-18T12:08:11.920Z,20.40
2023-02-18T12:09:12.696Z,19.00
2023-02-18T12:10:13.612Z,20.10
2023-02-18T12:11:14.445Z,19.60
2023-02-18T12:12:15.297Z,19.70
2023-02-18T12:13:16.152Z,20.60
2023-02-18T12:14:17.027Z,19.00
2023-02-18T12:15:17.954Z,22.90
2023-02-18T12:16:18.500Z,20.80
2023-02-18T12:17:19.448Z,16.20
2023-02-18T12:18:20.326Z,19.30
2023-02-18T12:19:21.158Z,19.80
2023-02-18T12:20:22.032Z,19.60
2023-02-18T12:21:23.189Z,25.90
2023-02-18T12:22:23.545Z,18.90
2023-02-18T12:23:24.418Z,18.60
2023-02-18T12:24:25.209Z,22.50
2023-02-18T12:25:26.061Z,21.70
2023-02-18T12:26:27.185Z,26.80
2023-02-18T12:27:27.534Z,26.10
2023-02-18T12:28:28.408Z,21.50
2023-02-18T12:29:29.262Z,22.10
2023-02-18T12:30:30.321Z,23.30
2023-02-18T12:31:30.872Z,22.40
2023-02-18T12:32:31.208Z,23.20
2023-02-18T12:33:32.097Z,24.30
2023-02-18T12:34:32.983Z,21.80
2023-02-18T12:35:33.847Z,23.80
2023-02-18T12:36:35.184Z,19.90
2023-02-18T12:37:35.531Z,23.30
2023-02-18T12:38:36.400Z,24.30
2023-02-18T12:39:37.175Z,20.40
2023-02-18T12:40:38.028Z,22.70
2023-02-18T12:41:39.176Z,22.80
2023-02-18T12:42:39.527Z,25.90
2023-02-18T12:43:40.382Z,27.30
2023-02-18T12:44:43.498Z,24.70
2023-02-18T12:45:42.061Z,30.10
2023-02-18T12:46:42.897Z,28.80
2023-02-18T12:47:43.749Z,27.80
2023-02-18T12:48:44.621Z,36.30
2023-02-18T12:49:45.464Z,26.70
2023-02-18T12:50:46.331Z,31.80
2023-02-18T12:51:47.686Z,29.00
2023-02-18T12:52:48.029Z,28.10
2023-02-18T12:53:49.000Z,28.80
2023-02-18T12:54:49.801Z,27.80
2023-02-18T12:55:50.657Z,26.60
2023-02-18T12:56:51.546Z,24.70
2023-02-18T12:57:52.371Z,27.90
2023-02-18T12:58:53.238Z,31.10
2023-02-18T12:59:54.082Z,22.60
2023-02-18T13:00:54.997Z,33.40
2023-02-18T13:01:55.802Z,35.60
2023-02-18T13:02:56.689Z,36.10
2023-02-18T13:03:57.547Z,39.30
2023-02-18T13:04:58.391Z,30.10